ADDS METAR Data INFO
IDs: Format: Raw Decoded Include TAF

Data at: 1512 UTC 23 Oct 2017

KJGG 231455Z AUTO 13006KT 10SM CLR 23/21 A3019 RMK AO1
KJGG 231435Z AUTO 14008KT 10SM CLR 22/21 A3020 RMK AO1
KJGG 231415Z AUTO 14007KT 10SM CLR 21/21 A3020 RMK AO1
KJGG 231355Z AUTO 14004KT 10SM CLR 20/20 A3021 RMK AO1
KJGG 231335Z AUTO 00000KT 10SM CLR 19/19 A3021 RMK AO1
KJGG 231315Z AUTO 00000KT 10SM CLR 18/18 A3022 RMK AO1
KJGG 231255Z AUTO 13003KT 10SM CLR 17/17 A3023 RMK AO1
KJGG 231235Z AUTO 13003KT 10SM CLR 17/17 A3023 RMK AO1
KJGG 231215Z AUTO 00000KT 10SM CLR 16/16 A3024 RMK AO1
KJGG 231155Z AUTO 00000KT 10SM CLR 16/15 A3024 RMK AO1
KJGG 231135Z AUTO 12003KT 10SM CLR 15/15 A3023 RMK AO1
KJGG 231115Z AUTO 00000KT 10SM CLR 16/16 A3024 RMK AO1
KJGG 231055Z AUTO 00000KT 10SM SCT037 16/16 A3024 RMK AO1
KJGG 231035Z AUTO 00000KT 10SM SCT037 16/16 A3024 RMK AO1
KJGG 231015Z AUTO 00000KT 10SM CLR 16/16 A3024 RMK AO1
KJGG 230955Z AUTO 00000KT 10SM CLR 16/16 A3024 RMK AO1
KJGG 230935Z AUTO 00000KT 10SM CLR 15/15 A3025 RMK AO1
KJGG 230915Z AUTO 00000KT 10SM CLR 16/16 A3026 RMK AO1
KJGG 230855Z AUTO 00000KT 10SM CLR 15/15 A3026 RMK AO1
KJGG 230835Z AUTO 09003KT 10SM CLR 16/16 A3026 RMK AO1
KJGG 230815Z AUTO 10003KT 10SM CLR 16/16 A3026 RMK AO1
KJGG 230755Z AUTO 00000KT 10SM CLR 16/16 A3026 RMK AO1
KJGG 230735Z AUTO 09003KT 10SM CLR 16/16 A3026 RMK AO1
KJGG 230715Z AUTO 00000KT 10SM CLR 16/16 A3027 RMK AO1
KJGG 230655Z AUTO 00000KT 10SM CLR 16/16 A3027 RMK AO1
KJGG 230635Z AUTO 11003KT 10SM CLR 16/16 A3027 RMK AO1
KJGG 230615Z AUTO 00000KT 10SM CLR 16/16 A3028 RMK AO1
KJGG 230555Z AUTO 00000KT 10SM CLR 16/16 A3028 RMK AO1
KJGG 230535Z AUTO 00000KT 10SM CLR 16/16 A3029 RMK AO1
KJGG 230515Z AUTO 11003KT 10SM CLR 16/16 A3029 RMK AO1
KJGG 230455Z AUTO 11003KT 10SM CLR 16/16 A3030 RMK AO1
KJGG 230435Z AUTO 11003KT 10SM CLR 16/16 A3030 RMK AO1
KJGG 230415Z AUTO 11003KT 10SM CLR 17/16 A3030 RMK AO1
KJGG 230355Z AUTO 00000KT 10SM CLR 17/17 A3031 RMK AO1
KJGG 230335Z AUTO 00000KT 10SM CLR 17/17 A3031 RMK AO1
KJGG 230310Z AUTO 13003KT 10SM CLR 17/17 A3032 RMK AO1
KJGG 230255Z AUTO 00000KT 10SM CLR 17/17 A3032 RMK AO1
KJGG 230235Z AUTO 13003KT 10SM CLR 17/17 A3033 RMK AO1
KJGG 230215Z AUTO 00000KT 10SM CLR 17/17 A3033 RMK AO1
KJGG 230155Z AUTO 11004KT 10SM CLR 17/17 A3034 RMK AO1
KJGG 230135Z AUTO 00000KT 10SM CLR 18/17 A3034 RMK AO1
KJGG 230115Z AUTO 00000KT 10SM CLR 18/17 A3034 RMK AO1
KJGG 230055Z AUTO 00000KT 10SM CLR 18/17 A3034 RMK AO1
KJGG 230035Z AUTO 11004KT 10SM CLR 18/17 A3033 RMK AO1
KJGG 230015Z AUTO 10004KT 10SM CLR 18/17 A3033 RMK AO1
KJGG 222355Z AUTO 11003KT 10SM CLR 19/17 A3033 RMK AO1
KJGG 222335Z AUTO 10005KT 10SM CLR 19/17 A3033 RMK AO1
KJGG 222315Z AUTO 10006KT 10SM CLR 19/17 A3032 RMK AO1
KJGG 222255Z AUTO 10004KT 10SM CLR 19/16 A3031 RMK AO1
KJGG 222235Z AUTO 10004KT 10SM CLR 19/17 A3031 RMK AO1
KJGG 222215Z AUTO 08003KT 10SM CLR 20/17 A3032 RMK AO1
KJGG 222155Z AUTO 00000KT 10SM CLR 21/17 A3032 RMK AO1
KJGG 222135Z AUTO 00000KT 10SM CLR 23/17 A3032 RMK AO1
KJGG 222115Z AUTO 11003KT 10SM CLR 24/17 A3032 RMK AO1
KJGG 222055Z AUTO 09004KT 10SM CLR 24/17 A3031 RMK AO1
KJGG 222035Z AUTO 00000KT 10SM CLR 24/16 A3031 RMK AO1
KJGG 222015Z AUTO 15005KT 10SM CLR 26/14 A3032 RMK AO1
KJGG 221955Z AUTO 12004KT 10SM CLR 26/14 A3032 RMK AO1
KJGG 221935Z AUTO 12003KT 10SM CLR 26/15 A3032 RMK AO1
KJGG 221915Z AUTO 11004KT 10SM CLR 26/16 A3033 RMK AO1
KJGG 221855Z AUTO 17005KT 10SM CLR 26/14 A3034 RMK AO1
KJGG 221835Z AUTO 16006KT 10SM CLR 26/14 A3034 RMK AO1
KJGG 221815Z AUTO 15006KT 10SM CLR 26/13 A3035 RMK AO1
KJGG 221755Z AUTO 17005KT 10SM CLR 26/14 A3035 RMK AO1
KJGG 221735Z AUTO 16003KT 10SM CLR 25/13 A3036 RMK AO1
KJGG 221715Z AUTO 16004KT 10SM CLR 25/14 A3037 RMK AO1
KJGG 221655Z AUTO 15005KT 10SM CLR 25/14 A3037 RMK AO1
KJGG 221635Z AUTO 18005KT 10SM CLR 24/15 A3038 RMK AO1
KJGG 221615Z AUTO 16004KT 10SM CLR 24/16 A3038 RMK AO1
KJGG 221555Z AUTO 16005KT 10SM CLR 23/16 A3038 RMK AO1
KJGG 221535Z AUTO 17004KT 10SM CLR 23/16 A3039 RMK AO1
KJGG 221515Z AUTO 15004KT 10SM CLR 23/16 A3039 RMK AO1
KJGG 221455Z AUTO 15006KT 10SM CLR 22/17 A3040 RMK AO1
KJGG 221435Z AUTO 15004KT 10SM CLR 19/17 A3040 RMK AO1
KJGG 221415Z AUTO 00000KT 10SM CLR 18/18 A3040 RMK AO1
KJGG 221355Z AUTO 00000KT 10SM CLR 17/17 A3040 RMK AO1
KJGG 221335Z AUTO 00000KT 10SM CLR 16/16 A3041 RMK AO1
KJGG 221315Z AUTO 00000KT 10SM CLR 15/15 A3041 RMK AO1
KJGG 221250Z AUTO 00000KT 10SM CLR 13/13 A3041 RMK AO1
KJGG 221235Z AUTO 00000KT 7SM CLR 13/13 A3041 RMK AO1
KJGG 221215Z AUTO 00000KT 7SM CLR 12/12 A3040 RMK AO1
KJGG 221155Z AUTO 00000KT 7SM CLR 13/12 A3039 RMK AO1
KJGG 221135Z AUTO 00000KT 7SM CLR 12/12 A3039 RMK AO1
KJGG 221115Z AUTO 00000KT 7SM CLR 13/12 A3038 RMK AO1
KJGG 221055Z AUTO 00000KT 10SM CLR 13/13 A3038 RMK AO1
KJGG 221035Z AUTO 00000KT 7SM CLR 13/13 A3038 RMK AO1
KJGG 221015Z AUTO 00000KT 10SM CLR 13/13 A3037 RMK AO1
KJGG 220955Z AUTO 00000KT 10SM CLR 13/13 A3037 RMK AO1
KJGG 220935Z AUTO 00000KT 10SM CLR 13/13 A3036 RMK AO1
KJGG 220915Z AUTO 00000KT 7SM CLR 13/13 A3036 RMK AO1
KJGG 220855Z AUTO 00000KT 10SM CLR 13/13 A3035 RMK AO1
KJGG 220835Z AUTO 00000KT 10SM CLR 13/13 A3034 RMK AO1
KJGG 220815Z AUTO 00000KT 10SM CLR 13/13 A3035 RMK AO1
KJGG 220755Z AUTO 00000KT 10SM CLR 13/13 A3035 RMK AO1
KJGG 220735Z AUTO 00000KT 7SM CLR 13/13 A3034 RMK AO1
KJGG 220715Z AUTO 00000KT 10SM CLR 13/13 A3034 RMK AO1
KJGG 220655Z AUTO 00000KT 10SM CLR 13/13 A3035 RMK AO1
KJGG 220635Z AUTO 00000KT 10SM CLR 13/13 A3035 RMK AO1
KJGG 220615Z AUTO 00000KT 10SM CLR 14/13 A3035 RMK AO1
KJGG 220555Z AUTO 00000KT 10SM CLR 14/14 A3035 RMK AO1
KJGG 220535Z AUTO 00000KT 10SM CLR 14/14 A3035 RMK AO1
KJGG 220515Z AUTO 00000KT 10SM CLR 14/14 A3035 RMK AO1
KJGG 220455Z AUTO 00000KT 10SM CLR 14/14 A3035 RMK AO1
KJGG 220435Z AUTO 00000KT 10SM CLR 15/14 A3036 RMK AO1
KJGG 220415Z AUTO 00000KT 10SM CLR 15/14 A3036 RMK AO1
KJGG 220355Z AUTO 00000KT 10SM CLR 15/14 A3036 RMK AO1
KJGG 220335Z AUTO 00000KT 10SM CLR 15/14 A3037 RMK AO1
KJGG 220315Z AUTO 00000KT 10SM CLR 15/14 A3037 RMK AO1